sensor_id;sensor_type;location;lat;lon;timestamp;P1;durP1;ratioP1;P2;durP2;ratioP2
26181;SDS011;13927;51.534;11.866;2024-01-10T00:02:22;21.67;;;12.50;;
26181;SDS011;13927;51.534;11.866;2024-01-10T00:04:47;30.10;;;12.27;;
26181;SDS011;13927;51.534;11.866;2024-01-10T00:07:13;24.38;;;10.93;;
26181;SDS011;13927;51.534;11.866;2024-01-10T00:09:39;24.83;;;9.93;;
26181;SDS011;13927;51.534;11.866;2024-01-10T00:12:05;22.58;;;11.02;;
26181;SDS011;13927;51.534;11.866;2024-01-10T00:14:30;25.52;;;12.02;;
26181;SDS011;13927;51.534;11.866;2024-01-10T00:16:56;32.58;;;12.50;;
26181;SDS011;13927;51.534;11.866;2024-01-10T00:19:22;22.65;;;10.90;;
26181;SDS011;13927;51.534;11.866;2024-01-10T00:21:47;23.17;;;9.88;;
26181;SDS011;13927;51.534;11.866;2024-01-10T00:24:13;30.30;;;11.68;;
26181;SDS011;13927;51.534;11.866;2024-01-10T00:26:42;25.10;;;11.27;;
26181;SDS011;13927;51.534;11.866;2024-01-10T00:29:08;21.92;;;10.15;;
26181;SDS011;13927;51.534;11.866;2024-01-10T00:31:33;29.05;;;11.93;;
26181;SDS011;13927;51.534;11.866;2024-01-10T00:33:59;25.00;;;11.90;;
26181;SDS011;13927;51.534;11.866;2024-01-10T00:36:25;22.02;;;10.57;;
26181;SDS011;13927;51.534;11.866;2024-01-10T00:38:51;21.02;;;11.55;;
26181;SDS011;13927;51.534;11.866;2024-01-10T00:41:17;31.25;;;14.23;;
26181;SDS011;13927;51.534;11.866;2024-01-10T00:43:42;16.73;;;9.82;;
26181;SDS011;13927;51.534;11.866;2024-01-10T00:46:08;36.75;;;11.05;;
26181;SDS011;13927;51.534;11.866;2024-01-10T00:48:34;26.02;;;11.38;;
26181;SDS011;13927;51.534;11.866;2024-01-10T00:50:59;30.77;;;13.00;;
26181;SDS011;13927;51.534;11.866;2024-01-10T00:53:25;20.35;;;10.13;;
26181;SDS011;13927;51.534;11.866;2024-01-10T00:55:51;27.25;;;11.23;;
26181;SDS011;13927;51.534;11.866;2024-01-10T00:58:17;19.77;;;10.68;;
26181;SDS011;13927;51.534;11.866;2024-01-10T01:00:42;25.42;;;10.73;;
26181;SDS011;13927;51.534;11.866;2024-01-10T01:03:08;32.15;;;10.68;;
26181;SDS011;13927;51.534;11.866;2024-01-10T01:05:35;20.67;;;10.82;;
26181;SDS011;13927;51.534;11.866;2024-01-10T01:08:00;25.42;;;11.90;;
26181;SDS011;13927;51.534;11.866;2024-01-10T01:10:26;21.80;;;11.15;;
26181;SDS011;13927;51.534;11.866;2024-01-10T01:12:52;19.13;;;8.98;;
26181;SDS011;13927;51.534;11.866;2024-01-10T01:15:17;21.08;;;10.35;;
26181;SDS011;13927;51.534;11.866;2024-01-10T01:17:43;26.20;;;12.52;;
26181;SDS011;13927;51.534;11.866;2024-01-10T01:20:09;23.77;;;11.95;;
26181;SDS011;13927;51.534;11.866;2024-01-10T01:22:35;27.50;;;13.73;;
26181;SDS011;13927;51.534;11.866;2024-01-10T01:25:00;26.20;;;10.88;;
26181;SDS011;13927;51.534;11.866;2024-01-10T01:27:26;20.42;;;9.30;;
26181;SDS011;13927;51.534;11.866;2024-01-10T01:29:52;20.35;;;10.05;;
26181;SDS011;13927;51.534;11.866;2024-01-10T01:32:17;25.17;;;11.38;;
26181;SDS011;13927;51.534;11.866;2024-01-10T01:34:43;23.65;;;12.63;;
26181;SDS011;13927;51.534;11.866;2024-01-10T01:37:08;28.63;;;10.55;;
26181;SDS011;13927;51.534;11.866;2024-01-10T01:39:34;30.77;;;12.00;;
26181;SDS011;13927;51.534;11.866;2024-01-10T01:42:00;19.90;;;9.13;;
26181;SDS011;13927;51.534;11.866;2024-01-10T01:44:28;23.83;;;10.27;;
26181;SDS011;13927;51.534;11.866;2024-01-10T01:46:54;20.13;;;10.40;;
26181;SDS011;13927;51.534;11.866;2024-01-10T01:49:19;19.10;;;9.43;;
26181;SDS011;13927;51.534;11.866;2024-01-10T01:51:45;23.00;;;11.93;;
26181;SDS011;13927;51.534;11.866;2024-01-10T01:54:11;16.52;;;9.55;;
26181;SDS011;13927;51.534;11.866;2024-01-10T01:56:37;18.65;;;10.52;;
26181;SDS011;13927;51.534;11.866;2024-01-10T01:59:04;23.75;;;10.90;;
26181;SDS011;13927;51.534;11.866;2024-01-10T02:01:30;24.55;;;10.82;;
26181;SDS011;13927;51.534;11.866;2024-01-10T02:03:57;23.13;;;10.60;;
26181;SDS011;13927;51.534;11.866;2024-01-10T02:06:26;33.85;;;13.07;;
26181;SDS011;13927;51.534;11.866;2024-01-10T02:08:51;21.83;;;9.75;;
26181;SDS011;13927;51.534;11.866;2024-01-10T02:11:17;26.05;;;12.60;;
26181;SDS011;13927;51.534;11.866;2024-01-10T02:13:44;28.65;;;11.27;;
26181;SDS011;13927;51.534;11.866;2024-01-10T02:16:10;24.60;;;10.80;;
26181;SDS011;13927;51.534;11.866;2024-01-10T02:18:37;20.73;;;10.65;;
26181;SDS011;13927;51.534;11.866;2024-01-10T02:21:03;20.42;;;9.90;;
26181;SDS011;13927;51.534;11.866;2024-01-10T02:23:29;17.48;;;10.05;;
26181;SDS011;13927;51.534;11.866;2024-01-10T02:25:56;30.88;;;12.90;;
26181;SDS011;13927;51.534;11.866;2024-01-10T02:28:22;22.38;;;10.60;;
26181;SDS011;13927;51.534;11.866;2024-01-10T02:30:49;20.42;;;10.25;;
26181;SDS011;13927;51.534;11.866;2024-01-10T02:33:17;26.75;;;10.68;;
26181;SDS011;13927;51.534;11.866;2024-01-10T02:35:44;23.38;;;10.85;;
26181;SDS011;13927;51.534;11.866;2024-01-10T02:38:10;17.17;;;9.57;;
26181;SDS011;13927;51.534;11.866;2024-01-10T02:40:35;24.20;;;10.63;;
26181;SDS011;13927;51.534;11.866;2024-01-10T02:43:01;22.58;;;11.45;;
26181;SDS011;13927;51.534;11.866;2024-01-10T02:45:27;24.17;;;10.27;;
26181;SDS011;13927;51.534;11.866;2024-01-10T02:47:53;23.63;;;10.90;;
26181;SDS011;13927;51.534;11.866;2024-01-10T02:50:18;25.52;;;11.70;;
26181;SDS011;13927;51.534;11.866;2024-01-10T02:52:44;25.50;;;10.57;;
26181;SDS011;13927;51.534;11.866;2024-01-10T02:55:10;24.42;;;10.15;;
26181;SDS011;13927;51.534;11.866;2024-01-10T02:57:36;26.25;;;11.45;;
26181;SDS011;13927;51.534;11.866;2024-01-10T03:00:01;25.73;;;11.15;;
26181;SDS011;13927;51.534;11.866;2024-01-10T03:02:29;20.17;;;10.45;;
26181;SDS011;13927;51.534;11.866;2024-01-10T03:04:55;22.52;;;10.88;;
26181;SDS011;13927;51.534;11.866;2024-01-10T03:07:20;26.80;;;12.55;;
26181;SDS011;13927;51.534;11.866;2024-01-10T03:09:46;34.85;;;11.38;;
26181;SDS011;13927;51.534;11.866;2024-01-10T03:12:12;24.45;;;10.70;;
26181;SDS011;13927;51.534;11.866;2024-01-10T03:14:38;25.95;;;12.05;;
26181;SDS011;13927;51.534;11.866;2024-01-10T03:17:03;32.80;;;12.10;;
26181;SDS011;13927;51.534;11.866;2024-01-10T03:19:30;23.05;;;10.98;;
26181;SDS011;13927;51.534;11.866;2024-01-10T03:21:56;37.42;;;13.88;;
26181;SDS011;13927;51.534;11.866;2024-01-10T03:24:22;30.88;;;14.32;;
26181;SDS011;13927;51.534;11.866;2024-01-10T03:26:51;24.70;;;10.55;;
26181;SDS011;13927;51.534;11.866;2024-01-10T03:29:17;30.23;;;11.75;;
26181;SDS011;13927;51.534;11.866;2024-01-10T03:31:42;35.13;;;13.20;;
26181;SDS011;13927;51.534;11.866;2024-01-10T03:34:08;24.70;;;10.00;;
26181;SDS011;13927;51.534;11.866;2024-01-10T03:36:35;28.60;;;11.05;;
26181;SDS011;13927;51.534;11.866;2024-01-10T03:39:01;30.02;;;13.90;;
26181;SDS011;13927;51.534;11.866;2024-01-10T03:41:26;29.85;;;11.48;;
26181;SDS011;13927;51.534;11.866;2024-01-10T03:43:52;23.00;;;11.02;;
26181;SDS011;13927;51.534;11.866;2024-01-10T03:46:19;22.02;;;12.82;;
26181;SDS011;13927;51.534;11.866;2024-01-10T03:48:45;24.95;;;11.98;;
26181;SDS011;13927;51.534;11.866;2024-01-10T03:51:15;30.00;;;14.55;;
26181;SDS011;13927;51.534;11.866;2024-01-10T03:53:43;28.48;;;12.38;;
26181;SDS011;13927;51.534;11.866;2024-01-10T03:56:12;28.85;;;13.80;;
26181;SDS011;13927;51.534;11.866;2024-01-10T03:58:43;15.73;;;8.70;;
26181;SDS011;13927;51.534;11.866;2024-01-10T04:01:13;27.45;;;13.73;;
26181;SDS011;13927;51.534;11.866;2024-01-10T04:03:41;19.48;;;10.18;;
26181;SDS011;13927;51.534;11.866;2024-01-10T04:06:07;20.15;;;11.00;;
26181;SDS011;13927;51.534;11.866;2024-01-10T04:08:35;31.92;;;14.45;;
26181;SDS011;13927;51.534;11.866;2024-01-10T04:11:01;22.33;;;11.60;;
26181;SDS011;13927;51.534;11.866;2024-01-10T04:13:28;22.10;;;9.82;;
26181;SDS011;13927;51.534;11.866;2024-01-10T04:15:54;31.63;;;12.57;;
26181;SDS011;13927;51.534;11.866;2024-01-10T04:18:22;26.58;;;12.95;;
26181;SDS011;13927;51.534;11.866;2024-01-10T04:20:49;29.17;;;13.57;;
26181;SDS011;13927;51.534;11.866;2024-01-10T04:23:17;28.90;;;11.57;;
26181;SDS011;13927;51.534;11.866;2024-01-10T04:25:46;28.02;;;12.93;;
26181;SDS011;13927;51.534;11.866;2024-01-10T04:28:15;24.80;;;11.55;;
26181;SDS011;13927;51.534;11.866;2024-01-10T04:30:43;25.27;;;10.43;;
26181;SDS011;13927;51.534;11.866;2024-01-10T04:33:10;24.58;;;11.30;;
26181;SDS011;13927;51.534;11.866;2024-01-10T04:35:37;30.90;;;12.77;;
26181;SDS011;13927;51.534;11.866;2024-01-10T04:38:03;32.17;;;11.50;;
26181;SDS011;13927;51.534;11.866;2024-01-10T04:40:31;31.88;;;12.73;;
26181;SDS011;13927;51.534;11.866;2024-01-10T04:42:57;17.40;;;9.95;;
26181;SDS011;13927;51.534;11.866;2024-01-10T04:45:24;28.77;;;12.43;;
26181;SDS011;13927;51.534;11.866;2024-01-10T04:47:56;24.33;;;11.02;;
26181;SDS011;13927;51.534;11.866;2024-01-10T04:50:25;29.20;;;11.88;;
26181;SDS011;13927;51.534;11.866;2024-01-10T04:52:51;25.48;;;12.15;;
26181;SDS011;13927;51.534;11.866;2024-01-10T04:55:18;31.80;;;16.25;;
26181;SDS011;13927;51.534;11.866;2024-01-10T04:57:45;32.47;;;15.23;;
26181;SDS011;13927;51.534;11.866;2024-01-10T05:00:12;35.10;;;19.02;;
26181;SDS011;13927;51.534;11.866;2024-01-10T05:02:39;23.15;;;10.85;;
26181;SDS011;13927;51.534;11.866;2024-01-10T05:05:05;36.10;;;12.10;;
26181;SDS011;13927;51.534;11.866;2024-01-10T05:07:35;31.13;;;13.75;;
26181;SDS011;13927;51.534;11.866;2024-01-10T05:10:02;19.77;;;13.30;;
26181;SDS011;13927;51.534;11.866;2024-01-10T05:12:33;32.42;;;14.35;;
26181;SDS011;13927;51.534;11.866;2024-01-10T05:15:01;24.67;;;11.60;;
26181;SDS011;13927;51.534;11.866;2024-01-10T05:17:30;27.17;;;12.90;;
26181;SDS011;13927;51.534;11.866;2024-01-10T05:19:57;23.27;;;13.82;;
26181;SDS011;13927;51.534;11.866;2024-01-10T05:22:24;32.50;;;14.45;;
26181;SDS011;13927;51.534;11.866;2024-01-10T05:24:53;33.28;;;12.00;;
26181;SDS011;13927;51.534;11.866;2024-01-10T05:27:21;28.30;;;13.95;;
26181;SDS011;13927;51.534;11.866;2024-01-10T05:29:50;33.63;;;13.70;;
26181;SDS011;13927;51.534;11.866;2024-01-10T05:32:17;23.65;;;13.90;;
26181;SDS011;13927;51.534;11.866;2024-01-10T05:34:44;37.47;;;12.52;;
26181;SDS011;13927;51.534;11.866;2024-01-10T05:37:11;29.10;;;13.25;;
26181;SDS011;13927;51.534;11.866;2024-01-10T05:39:42;24.30;;;11.98;;
26181;SDS011;13927;51.534;11.866;2024-01-10T05:42:10;27.20;;;12.82;;
26181;SDS011;13927;51.534;11.866;2024-01-10T05:44:39;16.95;;;11.13;;
26181;SDS011;13927;51.534;11.866;2024-01-10T05:47:07;34.08;;;13.23;;
26181;SDS011;13927;51.534;11.866;2024-01-10T05:49:33;22.80;;;12.27;;
26181;SDS011;13927;51.534;11.866;2024-01-10T05:52:01;26.88;;;12.00;;
26181;SDS011;13927;51.534;11.866;2024-01-10T05:54:31;23.60;;;11.45;;
26181;SDS011;13927;51.534;11.866;2024-01-10T05:56:58;27.27;;;11.20;;
26181;SDS011;13927;51.534;11.866;2024-01-10T05:59:26;30.02;;;12.43;;
26181;SDS011;13927;51.534;11.866;2024-01-10T06:01:57;26.77;;;13.50;;
26181;SDS011;13927;51.534;11.866;2024-01-10T06:04:24;24.15;;;11.63;;
26181;SDS011;13927;51.534;11.866;2024-01-10T06:06:51;33.88;;;13.93;;
26181;SDS011;13927;51.534;11.866;2024-01-10T06:09:18;23.60;;;11.73;;
26181;SDS011;13927;51.534;11.866;2024-01-10T06:11:47;29.02;;;12.45;;
26181;SDS011;13927;51.534;11.866;2024-01-10T06:14:14;33.65;;;14.20;;
26181;SDS011;13927;51.534;11.866;2024-01-10T06:16:46;23.38;;;10.85;;
26181;SDS011;13927;51.534;11.866;2024-01-10T06:19:12;28.90;;;12.10;;
26181;SDS011;13927;51.534;11.866;2024-01-10T06:21:40;36.25;;;14.18;;
26181;SDS011;13927;51.534;11.866;2024-01-10T06:24:08;21.05;;;10.05;;
26181;SDS011;13927;51.534;11.866;2024-01-10T06:26:35;28.42;;;13.15;;
26181;SDS011;13927;51.534;11.866;2024-01-10T06:29:02;34.05;;;15.70;;
26181;SDS011;13927;51.534;11.866;2024-01-10T06:31:30;44.33;;;14.60;;
26181;SDS011;13927;51.534;11.866;2024-01-10T06:33:59;31.48;;;13.65;;
26181;SDS011;13927;51.534;11.866;2024-01-10T06:36:26;28.30;;;13.95;;
26181;SDS011;13927;51.534;11.866;2024-01-10T06:38:57;40.60;;;14.70;;
26181;SDS011;13927;51.534;11.866;2024-01-10T06:41:25;66.95;;;29.05;;
26181;SDS011;13927;51.534;11.866;2024-01-10T06:43:51;127.97;;;51.97;;
26181;SDS011;13927;51.534;11.866;2024-01-10T06:46:25;34.38;;;12.98;;
26181;SDS011;13927;51.534;11.866;2024-01-10T06:48:52;26.58;;;12.13;;
26181;SDS011;13927;51.534;11.866;2024-01-10T06:51:19;30.52;;;14.32;;
26181;SDS011;13927;51.534;11.866;2024-01-10T06:53:51;35.22;;;11.07;;
26181;SDS011;13927;51.534;11.866;2024-01-10T06:56:26;33.28;;;14.40;;
26181;SDS011;13927;51.534;11.866;2024-01-10T06:58:53;26.85;;;13.13;;
26181;SDS011;13927;51.534;11.866;2024-01-10T07:01:20;28.05;;;11.35;;
26181;SDS011;13927;51.534;11.866;2024-01-10T07:03:50;30.75;;;14.80;;
26181;SDS011;13927;51.534;11.866;2024-01-10T07:06:20;39.67;;;14.40;;
26181;SDS011;13927;51.534;11.866;2024-01-10T07:08:51;29.63;;;14.27;;
26181;SDS011;13927;51.534;11.866;2024-01-10T07:11:18;22.55;;;11.77;;
26181;SDS011;13927;51.534;11.866;2024-01-10T07:13:50;22.75;;;11.23;;
26181;SDS011;13927;51.534;11.866;2024-01-10T07:16:16;33.25;;;12.00;;
26181;SDS011;13927;51.534;11.866;2024-01-10T07:18:44;26.08;;;12.13;;
26181;SDS011;13927;51.534;11.866;2024-01-10T07:21:15;25.42;;;12.70;;
26181;SDS011;13927;51.534;11.866;2024-01-10T07:23:44;34.88;;;13.32;;
26181;SDS011;13927;51.534;11.866;2024-01-10T07:26:24;27.52;;;12.30;;
26181;SDS011;13927;51.534;11.866;2024-01-10T07:28:54;32.30;;;13.35;;
26181;SDS011;13927;51.534;11.866;2024-01-10T07:31:42;33.63;;;20.13;;
26181;SDS011;13927;51.534;11.866;2024-01-10T07:34:10;40.58;;;18.77;;
26181;SDS011;13927;51.534;11.866;2024-01-10T07:36:42;39.95;;;19.98;;
26181;SDS011;13927;51.534;11.866;2024-01-10T07:39:10;36.97;;;14.75;;
26181;SDS011;13927;51.534;11.866;2024-01-10T07:41:42;26.45;;;16.40;;
26181;SDS011;13927;51.534;11.866;2024-01-10T07:44:11;28.40;;;15.25;;
26181;SDS011;13927;51.534;11.866;2024-01-10T07:46:42;30.20;;;14.90;;
26181;SDS011;13927;51.534;11.866;2024-01-10T07:49:10;32.05;;;18.00;;
26181;SDS011;13927;51.534;11.866;2024-01-10T07:51:38;49.33;;;19.48;;
26181;SDS011;13927;51.534;11.866;2024-01-10T07:54:15;37.20;;;14.90;;
26181;SDS011;13927;51.534;11.866;2024-01-10T07:56:44;38.28;;;16.33;;
26181;SDS011;13927;51.534;11.866;2024-01-10T07:59:11;41.38;;;16.40;;
26181;SDS011;13927;51.534;11.866;2024-01-10T08:01:43;29.90;;;16.65;;
26181;SDS011;13927;51.534;11.866;2024-01-10T08:04:22;38.97;;;14.48;;
26181;SDS011;13927;51.534;11.866;2024-01-10T08:06:48;29.63;;;15.13;;
26181;SDS011;13927;51.534;11.866;2024-01-10T08:09:15;36.38;;;17.83;;
26181;SDS011;13927;51.534;11.866;2024-01-10T08:11:45;44.05;;;15.55;;
26181;SDS011;13927;51.534;11.866;2024-01-10T08:14:14;45.30;;;17.10;;
26181;SDS011;13927;51.534;11.866;2024-01-10T08:16:46;46.47;;;17.92;;
26181;SDS011;13927;51.534;11.866;2024-01-10T08:19:13;37.35;;;15.98;;
26181;SDS011;13927;51.534;11.866;2024-01-10T08:21:41;37.58;;;15.25;;
26181;SDS011;13927;51.534;11.866;2024-01-10T08:24:08;38.28;;;17.48;;
26181;SDS011;13927;51.534;11.866;2024-01-10T08:26:35;35.03;;;18.10;;
26181;SDS011;13927;51.534;11.866;2024-01-10T08:29:03;43.47;;;17.58;;
26181;SDS011;13927;51.534;11.866;2024-01-10T08:31:31;42.10;;;17.90;;
26181;SDS011;13927;51.534;11.866;2024-01-10T08:34:07;40.67;;;16.58;;
26181;SDS011;13927;51.534;11.866;2024-01-10T08:36:34;43.55;;;17.85;;
26181;SDS011;13927;51.534;11.866;2024-01-10T08:39:04;41.78;;;18.65;;
26181;SDS011;13927;51.534;11.866;2024-01-10T08:41:31;62.85;;;23.60;;
26181;SDS011;13927;51.534;11.866;2024-01-10T08:43:59;36.17;;;17.90;;
26181;SDS011;13927;51.534;11.866;2024-01-10T08:46:26;35.80;;;16.13;;
26181;SDS011;13927;51.534;11.866;2024-01-10T08:48:54;38.28;;;16.80;;
26181;SDS011;13927;51.534;11.866;2024-01-10T08:51:21;41.20;;;18.75;;
26181;SDS011;13927;51.534;11.866;2024-01-10T08:53:50;42.65;;;16.63;;
26181;SDS011;13927;51.534;11.866;2024-01-10T08:56:18;38.03;;;16.50;;
26181;SDS011;13927;51.534;11.866;2024-01-10T08:58:45;38.17;;;15.57;;
26181;SDS011;13927;51.534;11.866;2024-01-10T09:01:13;36.72;;;15.98;;
26181;SDS011;13927;51.534;11.866;2024-01-10T09:03:42;39.90;;;16.77;;
26181;SDS011;13927;51.534;11.866;2024-01-10T09:06:08;43.80;;;17.00;;
26181;SDS011;13927;51.534;11.866;2024-01-10T09:08:35;41.85;;;16.77;;
26181;SDS011;13927;51.534;11.866;2024-01-10T09:11:02;45.00;;;18.17;;
26181;SDS011;13927;51.534;11.866;2024-01-10T09:13:30;42.60;;;18.20;;
26181;SDS011;13927;51.534;11.866;2024-01-10T09:15:57;42.88;;;19.02;;
26181;SDS011;13927;51.534;11.866;2024-01-10T09:18:23;39.45;;;17.13;;
26181;SDS011;13927;51.534;11.866;2024-01-10T09:20:53;43.40;;;20.27;;
26181;SDS011;13927;51.534;11.866;2024-01-10T09:23:20;52.05;;;22.58;;
26181;SDS011;13927;51.534;11.866;2024-01-10T09:25:50;45.72;;;18.90;;
26181;SDS011;13927;51.534;11.866;2024-01-10T09:28:17;48.88;;;19.17;;
26181;SDS011;13927;51.534;11.866;2024-01-10T09:30:44;38.63;;;17.58;;
26181;SDS011;13927;51.534;11.866;2024-01-10T09:33:11;39.10;;;17.10;;
26181;SDS011;13927;51.534;11.866;2024-01-10T09:35:38;35.92;;;16.52;;
26181;SDS011;13927;51.534;11.866;2024-01-10T09:38:07;37.10;;;16.92;;
26181;SDS011;13927;51.534;11.866;2024-01-10T09:40:33;45.20;;;18.95;;
26181;SDS011;13927;51.534;11.866;2024-01-10T09:43:00;44.35;;;19.08;;
26181;SDS011;13927;51.534;11.866;2024-01-10T09:45:28;41.92;;;18.42;;
26181;SDS011;13927;51.534;11.866;2024-01-10T09:48:03;41.97;;;17.70;;
26181;SDS011;13927;51.534;11.866;2024-01-10T09:50:32;45.78;;;18.48;;
26181;SDS011;13927;51.534;11.866;2024-01-10T09:53:05;41.97;;;19.33;;
26181;SDS011;13927;51.534;11.866;2024-01-10T09:55:36;42.25;;;18.98;;
26181;SDS011;13927;51.534;11.866;2024-01-10T09:58:06;43.58;;;18.92;;
26181;SDS011;13927;51.534;11.866;2024-01-10T10:00:36;48.65;;;17.52;;
26181;SDS011;13927;51.534;11.866;2024-01-10T10:03:09;44.83;;;18.88;;
26181;SDS011;13927;51.534;11.866;2024-01-10T10:05:37;46.33;;;20.52;;
26181;SDS011;13927;51.534;11.866;2024-01-10T10:08:07;37.17;;;18.35;;
26181;SDS011;13927;51.534;11.866;2024-01-10T10:10:36;45.72;;;19.20;;
26181;SDS011;13927;51.534;11.866;2024-01-10T10:13:09;42.10;;;20.02;;
26181;SDS011;13927;51.534;11.866;2024-01-10T10:15:39;40.53;;;19.63;;
26181;SDS011;13927;51.534;11.866;2024-01-10T10:18:13;47.40;;;21.05;;
26181;SDS011;13927;51.534;11.866;2024-01-10T10:20:40;41.47;;;18.40;;
26181;SDS011;13927;51.534;11.866;2024-01-10T10:23:06;39.03;;;18.25;;
26181;SDS011;13927;51.534;11.866;2024-01-10T10:25:43;46.45;;;18.80;;
26181;SDS011;13927;51.534;11.866;2024-01-10T10:28:11;46.97;;;20.42;;
26181;SDS011;13927;51.534;11.866;2024-01-10T10:30:37;39.92;;;18.77;;
26181;SDS011;13927;51.534;11.866;2024-01-10T10:33:05;48.30;;;20.08;;
26181;SDS011;13927;51.534;11.866;2024-01-10T10:35:34;43.35;;;18.85;;
26181;SDS011;13927;51.534;11.866;2024-01-10T10:38:04;47.70;;;20.95;;
26181;SDS011;13927;51.534;11.866;2024-01-10T10:40:34;51.50;;;21.38;;
26181;SDS011;13927;51.534;11.866;2024-01-10T10:43:01;45.63;;;20.15;;
26181;SDS011;13927;51.534;11.866;2024-01-10T10:45:30;44.08;;;19.40;;
26181;SDS011;13927;51.534;11.866;2024-01-10T10:47:59;38.40;;;18.85;;
26181;SDS011;13927;51.534;11.866;2024-01-10T10:50:28;38.67;;;19.02;;
26181;SDS011;13927;51.534;11.866;2024-01-10T10:53:00;42.92;;;20.42;;
26181;SDS011;13927;51.534;11.866;2024-01-10T10:55:28;43.28;;;20.20;;
26181;SDS011;13927;51.534;11.866;2024-01-10T10:57:55;43.78;;;20.83;;
26181;SDS011;13927;51.534;11.866;2024-01-10T11:00:21;50.15;;;21.00;;
26181;SDS011;13927;51.534;11.866;2024-01-10T11:02:55;54.75;;;22.02;;
26181;SDS011;13927;51.534;11.866;2024-01-10T11:05:23;46.70;;;20.58;;
26181;SDS011;13927;51.534;11.866;2024-01-10T11:07:52;45.70;;;19.45;;
26181;SDS011;13927;51.534;11.866;2024-01-10T11:10:29;48.95;;;19.30;;
26181;SDS011;13927;51.534;11.866;2024-01-10T11:15:44;42.53;;;17.85;;
26181;SDS011;13927;51.534;11.866;2024-01-10T11:24:35;43.53;;;18.88;;
26181;SDS011;13927;51.534;11.866;2024-01-10T11:27:14;48.60;;;18.63;;
26181;SDS011;13927;51.534;11.866;2024-01-10T11:29:42;38.42;;;19.13;;
26181;SDS011;13927;51.534;11.866;2024-01-10T11:32:17;42.92;;;19.05;;
26181;SDS011;13927;51.534;11.866;2024-01-10T11:34:55;43.97;;;19.52;;
26181;SDS011;13927;51.534;11.866;2024-01-10T11:37:28;44.22;;;19.05;;
26181;SDS011;13927;51.534;11.866;2024-01-10T11:40:09;44.88;;;18.63;;
26181;SDS011;13927;51.534;11.866;2024-01-10T11:42:46;48.65;;;18.92;;
26181;SDS011;13927;51.534;11.866;2024-01-10T11:48:01;44.85;;;19.27;;
26181;SDS011;13927;51.534;11.866;2024-01-10T11:50:28;44.75;;;18.52;;
26181;SDS011;13927;51.534;11.866;2024-01-10T11:52:56;46.90;;;20.00;;
26181;SDS011;13927;51.534;11.866;2024-01-10T11:58:20;44.00;;;19.80;;
26181;SDS011;13927;51.534;11.866;2024-01-10T12:00:50;46.63;;;20.83;;
26181;SDS011;13927;51.534;11.866;2024-01-10T12:03:17;46.45;;;19.63;;
26181;SDS011;13927;51.534;11.866;2024-01-10T12:05:47;42.95;;;19.77;;
26181;SDS011;13927;51.534;11.866;2024-01-10T12:08:17;49.55;;;20.13;;
26181;SDS011;13927;51.534;11.866;2024-01-10T12:10:44;45.70;;;19.52;;
26181;SDS011;13927;51.534;11.866;2024-01-10T12:13:12;47.25;;;20.45;;
26181;SDS011;13927;51.534;11.866;2024-01-10T12:15:38;45.00;;;19.77;;
26181;SDS011;13927;51.534;11.866;2024-01-10T12:18:05;45.30;;;21.73;;
26181;SDS011;13927;51.534;11.866;2024-01-10T12:20:31;49.58;;;21.67;;
26181;SDS011;13927;51.534;11.866;2024-01-10T12:22:57;41.75;;;20.30;;
26181;SDS011;13927;51.534;11.866;2024-01-10T12:25:24;47.75;;;21.15;;
26181;SDS011;13927;51.534;11.866;2024-01-10T12:27:52;46.03;;;20.80;;
26181;SDS011;13927;51.534;11.866;2024-01-10T12:30:18;41.97;;;20.33;;
26181;SDS011;13927;51.534;11.866;2024-01-10T12:32:45;42.45;;;19.15;;
26181;SDS011;13927;51.534;11.866;2024-01-10T12:35:19;42.47;;;22.63;;
26181;SDS011;13927;51.534;11.866;2024-01-10T12:37:54;48.60;;;21.20;;
26181;SDS011;13927;51.534;11.866;2024-01-10T12:40:22;42.90;;;21.00;;
26181;SDS011;13927;51.534;11.866;2024-01-10T12:42:49;43.67;;;22.65;;
26181;SDS011;13927;51.534;11.866;2024-01-10T12:45:32;43.83;;;19.48;;
26181;SDS011;13927;51.534;11.866;2024-01-10T12:48:01;42.72;;;19.02;;
26181;SDS011;13927;51.534;11.866;2024-01-10T12:50:28;48.38;;;21.50;;
26181;SDS011;13927;51.534;11.866;2024-01-10T12:52:55;45.40;;;20.17;;
26181;SDS011;13927;51.534;11.866;2024-01-10T12:55:25;47.60;;;20.48;;
26181;SDS011;13927;51.534;11.866;2024-01-10T12:57:54;45.00;;;22.05;;
26181;SDS011;13927;51.534;11.866;2024-01-10T13:00:24;48.67;;;21.35;;
26181;SDS011;13927;51.534;11.866;2024-01-10T13:02:50;46.63;;;21.90;;
26181;SDS011;13927;51.534;11.866;2024-01-10T13:05:16;52.67;;;21.48;;
26181;SDS011;13927;51.534;11.866;2024-01-10T13:07:43;48.83;;;22.52;;
26181;SDS011;13927;51.534;11.866;2024-01-10T13:10:09;42.50;;;21.58;;
26181;SDS011;13927;51.534;11.866;2024-01-10T13:12:36;46.60;;;21.75;;
26181;SDS011;13927;51.534;11.866;2024-01-10T13:15:02;39.25;;;20.17;;
26181;SDS011;13927;51.534;11.866;2024-01-10T13:17:34;45.67;;;20.55;;
26181;SDS011;13927;51.534;11.866;2024-01-10T13:20:00;51.78;;;23.50;;
26181;SDS011;13927;51.534;11.866;2024-01-10T13:22:31;46.60;;;20.75;;
26181;SDS011;13927;51.534;11.866;2024-01-10T13:24:59;47.17;;;21.67;;
26181;SDS011;13927;51.534;11.866;2024-01-10T13:27:27;51.75;;;22.73;;
26181;SDS011;13927;51.534;11.866;2024-01-10T13:29:55;50.15;;;22.23;;
26181;SDS011;13927;51.534;11.866;2024-01-10T13:32:31;52.58;;;23.75;;
26181;SDS011;13927;51.534;11.866;2024-01-10T13:34:58;44.38;;;21.75;;
26181;SDS011;13927;51.534;11.866;2024-01-10T13:37:25;47.58;;;21.27;;
26181;SDS011;13927;51.534;11.866;2024-01-10T13:39:55;47.92;;;21.42;;
26181;SDS011;13927;51.534;11.866;2024-01-10T13:42:25;45.45;;;20.33;;
26181;SDS011;13927;51.534;11.866;2024-01-10T13:44:52;46.90;;;20.58;;
26181;SDS011;13927;51.534;11.866;2024-01-10T13:47:20;46.55;;;20.45;;
26181;SDS011;13927;51.534;11.866;2024-01-10T13:49:52;44.53;;;21.67;;
26181;SDS011;13927;51.534;11.866;2024-01-10T13:52:18;49.33;;;22.40;;
26181;SDS011;13927;51.534;11.866;2024-01-10T13:54:47;50.92;;;21.25;;
26181;SDS011;13927;51.534;11.866;2024-01-10T13:57:14;40.85;;;19.50;;
26181;SDS011;13927;51.534;11.866;2024-01-10T13:59:41;50.95;;;22.17;;
26181;SDS011;13927;51.534;11.866;2024-01-10T14:02:08;39.63;;;19.25;;
26181;SDS011;13927;51.534;11.866;2024-01-10T14:04:36;46.83;;;20.92;;
26181;SDS011;13927;51.534;11.866;2024-01-10T14:07:03;43.90;;;20.40;;
26181;SDS011;13927;51.534;11.866;2024-01-10T14:09:30;44.53;;;21.23;;
26181;SDS011;13927;51.534;11.866;2024-01-10T14:11:56;47.97;;;20.98;;
26181;SDS011;13927;51.534;11.866;2024-01-10T14:14:23;49.65;;;20.80;;
26181;SDS011;13927;51.534;11.866;2024-01-10T14:16:49;45.38;;;20.75;;
26181;SDS011;13927;51.534;11.866;2024-01-10T14:19:17;41.45;;;20.15;;
26181;SDS011;13927;51.534;11.866;2024-01-10T14:21:43;42.40;;;19.65;;
26181;SDS011;13927;51.534;11.866;2024-01-10T14:24:11;45.60;;;19.73;;
26181;SDS011;13927;51.534;11.866;2024-01-10T14:26:38;47.15;;;20.80;;
26181;SDS011;13927;51.534;11.866;2024-01-10T14:29:06;37.30;;;19.20;;